Whale Watcher II — WDB8211 — position and weather

sailwx.info

Track history (hours):
 
Tides and Currents Weather Stations Pressure Air Temp Water Temp Dewpoint Dewpoint Depression Visibility Wind Speed Wind Dir Waves Ship Positions

Whale Watcher II

Owner: Ronald L. Robbins LLC, Cape May, NJ. More information available from US FCC via Universal Licensing System and Coast Guard Vessel Documentation Center.

Last reported at 2015-May-24 02:17 UTC. Time now 2015-May-25 11:22 UTC.
Position N 29°57' W 090°01'.

Length 22 m.

Type: Towing. MMSI: 367011790.

Date/timePositionNaut miles runAvg speedWind from/ knotsBaromVisibWave heightAir tempDewpointWater temp
2015-May-24 02:17N 29°57' W 090°01'3 3.9
2015-May-24 01:31N 29°55' W 090°04'1 1.3
2015-May-24 00:32N 29°55' W 090°05'0 0.0
2015-May-23 23:25N 29°55' W 090°05'0 0.0
2015-May-23 22:32N 29°55' W 090°05'1 1.3
2015-May-23 21:32N 29°55' W 090°04'0 0.0
2015-May-23 20:30N 29°55' W 090°04'0 0.0
2015-May-23 19:33N 29°55' W 090°04'0 0.0
2015-May-23 18:29N 29°55' W 090°04'0 0.0
2015-May-23 17:33N 29°55' W 090°04'0 0.0
2015-May-23 16:33N 29°55' W 090°04'0 0.0
2015-May-23 15:33N 29°55' W 090°04'0 0.0
2015-May-23 14:32N 29°56' W 090°04'3 3.1
2015-May-23 13:33N 29°56' W 090°00'6 4.3
2015-May-23 12:11N 29°52' W 089°56'2 2.8
2015-May-23 11:32N 29°53' W 089°57'0 0.0
2015-May-23 10:34N 29°53' W 089°57'0 0.0
2015-May-23 09:23N 29°53' W 089°57'0 0.0
2015-May-23 08:32N 29°53' W 089°57'6 0.3
2015-May-22 09:18N 29°56' W 090°03'0 0.0
2015-May-22 07:25N 29°56' W 090°03'1 1.5
2015-May-22 06:30N 29°57' W 090°03'1 0.2
2015-May-21 23:31N 29°56' W 090°04'0 0.3
2015-May-21 22:28N 29°55' W 090°04'6 0.2
2015-May-20 08:26N 29°56' W 090°11'3 3.3
2015-May-20 07:25N 29°55' W 090°07'3 3.3
2015-May-20 06:28N 29°55' W 090°04'1 0.5
2015-May-20 05:24N 29°56' W 090°03'0 0.5
2015-May-20 04:24N 29°55' W 090°04'  
2015-May-17 20:26N 29°56' W 090°10'2 2.7
2015-May-17 19:33N 29°55' W 090°08'4 3.9
2015-May-17 18:33N 29°55' W 090°04'0 0.0
2015-May-17 17:33N 29°55' W 090°04'0 0.0
2015-May-17 16:31N 29°55' W 090°04'0 0.0
2015-May-17 15:33N 29°55' W 090°04'0 0.0
2015-May-17 14:32N 29°55' W 090°04'0 0.0
2015-May-17 13:32N 29°55' W 090°04'0 0.0
2015-May-17 12:33N 29°55' W 090°04'0 0.0
2015-May-17 11:27N 29°55' W 090°04'0 0.0
2015-May-17 10:29N 29°55' W 090°04'6 0.4
2015-May-16 17:26N 29°56' W 090°11'6 1.9
2015-May-16 14:30N 29°55' W 090°04'0 0.0
2015-May-16 13:27N 29°55' W 090°04'0 0.0
2015-May-16 12:29N 29°55' W 090°04'1 0.6
2015-May-16 11:22N 29°55' W 090°04'3 1.5
2015-May-16 09:26N 29°56' W 090°00'6 4.0
2015-May-16 08:04N 29°54' W 089°55'9 3.5
2015-May-16 05:31N 29°47' W 090°01'7 0.2
2015-May-14 20:14N 29°53' W 089°57'6 1.7
2015-May-14 16:31N 29°55' W 090°04'0 0.0
2015-May-14 15:17N 29°55' W 090°04'0 0.0
2015-May-14 14:18N 29°55' W 090°04'0 0.0
2015-May-14 13:28N 29°55' W 090°04'0 0.1
2015-May-14 12:26N 29°55' W 090°04'0 0.0
2015-May-14 11:33N 29°55' W 090°04'4 2.9
2015-May-14 10:08N 29°56' W 090°08'  
Track history (hours):
 
Tides and Currents Weather Stations Pressure Air Temp Water Temp Dewpoint Dewpoint Depression Visibility Wind Speed Wind Dir Waves Ship Positions

Whale Watcher II

Owner: Ronald L. Robbins LLC, Cape May, NJ. More information available from US FCC via Universal Licensing System and Coast Guard Vessel Documentation Center.

Last reported at 2015-May-24 02:17 UTC. Time now 2015-May-25 11:22 UTC.
Position N 29°57' W 090°01'.

Length 22 m.

Type: Towing. MMSI: 367011790.

Date/timePositionNaut miles runAvg speedWind from/ knotsBaromVisibWave heightAir tempDewpointWater temp
2015-May-24 02:17N 29°57' W 090°01'3 3.9
2015-May-24 01:31N 29°55' W 090°04'1 1.3
2015-May-24 00:32N 29°55' W 090°05'0 0.0
2015-May-23 23:25N 29°55' W 090°05'0 0.0
2015-May-23 22:32N 29°55' W 090°05'1 1.3
2015-May-23 21:32N 29°55' W 090°04'0 0.0
2015-May-23 20:30N 29°55' W 090°04'0 0.0
2015-May-23 19:33N 29°55' W 090°04'0 0.0
2015-May-23 18:29N 29°55' W 090°04'0 0.0
2015-May-23 17:33N 29°55' W 090°04'0 0.0
2015-May-23 16:33N 29°55' W 090°04'0 0.0
2015-May-23 15:33N 29°55' W 090°04'0 0.0
2015-May-23 14:32N 29°56' W 090°04'3 3.1
2015-May-23 13:33N 29°56' W 090°00'6 4.3
2015-May-23 12:11N 29°52' W 089°56'2 2.8
2015-May-23 11:32N 29°53' W 089°57'0 0.0
2015-May-23 10:34N 29°53' W 089°57'0 0.0
2015-May-23 09:23N 29°53' W 089°57'0 0.0
2015-May-23 08:32N 29°53' W 089°57'6 0.3
2015-May-22 09:18N 29°56' W 090°03'0 0.0
2015-May-22 07:25N 29°56' W 090°03'1 1.5
2015-May-22 06:30N 29°57' W 090°03'1 0.2
2015-May-21 23:31N 29°56' W 090°04'0 0.3
2015-May-21 22:28N 29°55' W 090°04'6 0.2
2015-May-20 08:26N 29°56' W 090°11'3 3.3
2015-May-20 07:25N 29°55' W 090°07'3 3.3
2015-May-20 06:28N 29°55' W 090°04'1 0.5
2015-May-20 05:24N 29°56' W 090°03'0 0.5
2015-May-20 04:24N 29°55' W 090°04'  
2015-May-17 20:26N 29°56' W 090°10'2 2.7
2015-May-17 19:33N 29°55' W 090°08'4 3.9
2015-May-17 18:33N 29°55' W 090°04'0 0.0
2015-May-17 17:33N 29°55' W 090°04'0 0.0
2015-May-17 16:31N 29°55' W 090°04'0 0.0
2015-May-17 15:33N 29°55' W 090°04'0 0.0
2015-May-17 14:32N 29°55' W 090°04'0 0.0
2015-May-17 13:32N 29°55' W 090°04'0 0.0
2015-May-17 12:33N 29°55' W 090°04'0 0.0
2015-May-17 11:27N 29°55' W 090°04'0 0.0
2015-May-17 10:29N 29°55' W 090°04'6 0.4
2015-May-16 17:26N 29°56' W 090°11'6 1.9
2015-May-16 14:30N 29°55' W 090°04'0 0.0
2015-May-16 13:27N 29°55' W 090°04'0 0.0
2015-May-16 12:29N 29°55' W 090°04'1 0.6
2015-May-16 11:22N 29°55' W 090°04'3 1.5
2015-May-16 09:26N 29°56' W 090°00'6 4.0
2015-May-16 08:04N 29°54' W 089°55'9 3.5
2015-May-16 05:31N 29°47' W 090°01'7 0.2
2015-May-14 20:14N 29°53' W 089°57'6 1.7
2015-May-14 16:31N 29°55' W 090°04'0 0.0
2015-May-14 15:17N 29°55' W 090°04'0 0.0
2015-May-14 14:18N 29°55' W 090°04'0 0.0
2015-May-14 13:28N 29°55' W 090°04'0 0.1
2015-May-14 12:26N 29°55' W 090°04'0 0.0
2015-May-14 11:33N 29°55' W 090°04'4 2.9
2015-May-14 10:08N 29°56' W 090°08'  

Dump ship's entire track history